Time;durP1;ratioP1;P1;durP2;ratioP2;P2;SDS_P1;SDS_P2;PMS_P1;PMS_P2;Temp;Humidity;BMP_temperature;BMP_pressure;BME280_temperature;BME280_humidity;BME280_pressure;Samples;Min_cycle;Max_cycle;Signal;HPM_P1;HPM_P2
2022/06/22 00:04:34;;;;;;;5.38;3.15;;;;;;;;;;10281076;28;20045;-62
2022/06/22 00:09:35;;;;;;;5.80;2.95;;;;;;;;;;10284082;28;20053;-62
2022/06/22 00:14:35;;;;;;;7.25;3.28;;;;;;;;;;10280267;28;20489;-61
2022/06/22 00:19:36;;;;;;;5.88;3.90;;;;;;;;;;10280752;28;20406;-62
2022/06/22 00:24:40;;;;;;;4.97;2.55;;;;;;;;;;10280503;28;20037;-62
2022/06/22 00:29:39;;;;;;;7.93;3.90;;;;;;;;;;10282637;28;20080;-62
2022/06/22 00:34:37;;;;;;;6.43;3.58;;;;;;;;;;10282830;28;20076;-61
2022/06/22 00:39:38;;;;;;;5.15;3.55;;;;;;;;;;10279842;28;20076;-62
2022/06/22 00:44:38;;;;;;;9.75;3.35;;;;;;;;;;10282710;28;20088;-62
2022/06/22 00:49:36;;;;;;;5.90;3.40;;;;;;;;;;10279342;28;20041;-61
2022/06/22 00:54:36;;;;;;;7.20;2.80;;;;;;;;;;10279008;28;20111;-62
2022/06/22 00:59:37;;;;;;;11.73;3.30;;;;;;;;;;10284989;28;20503;-61
2022/06/22 01:04:40;;;;;;;4.15;2.90;;;;;;;;;;10281844;28;20045;-62
2022/06/22 01:09:39;;;;;;;8.90;2.85;;;;;;;;;;10278575;28;20053;-62
2022/06/22 01:14:40;;;;;;;6.55;3.10;;;;;;;;;;10278394;28;20092;-62
2022/06/22 01:19:45;;;;;;;6.00;3.55;;;;;;;;;;10280314;28;20501;-62
2022/06/22 01:24:50;;;;;;;3.40;2.70;;;;;;;;;;10285755;28;20061;-64
2022/06/22 01:29:51;;;;;;;8.95;3.58;;;;;;;;;;10275130;28;20065;-65
2022/06/22 01:34:51;;;;;;;8.68;3.40;;;;;;;;;;10278181;28;20072;-64
2022/06/22 01:39:50;;;;;;;6.82;2.95;;;;;;;;;;10276982;28;20072;-64
2022/06/22 01:44:53;;;;;;;8.80;3.22;;;;;;;;;;10273896;28;20068;-64
2022/06/22 01:49:55;;;;;;;6.75;4.20;;;;;;;;;;10277626;28;20078;-66
2022/06/22 01:54:56;;;;;;;6.88;3.22;;;;;;;;;;10280150;28;20465;-66
2022/06/22 01:59:58;;;;;;;4.43;3.40;;;;;;;;;;10277249;28;20069;-65
2022/06/22 02:04:59;;;;;;;4.38;3.55;;;;;;;;;;10277347;28;20069;-65
2022/06/22 02:10:04;;;;;;;5.72;3.45;;;;;;;;;;10276947;28;20316;-64
2022/06/22 02:15:07;;;;;;;5.63;3.20;;;;;;;;;;10279624;28;20115;-66
2022/06/22 02:20:26;;;;;;;7.32;4.45;;;;;;;;;;10275026;28;20073;-64
2022/06/22 02:25:27;;;;;;;5.05;3.90;;;;;;;;;;10277006;28;20092;-66
2022/06/22 02:30:27;;;;;;;6.65;3.75;;;;;;;;;;10279326;28;20056;-65
2022/06/22 02:35:25;;;;;;;7.60;3.85;;;;;;;;;;10276857;28;20069;-64
2022/06/22 02:40:26;;;;;;;11.00;4.50;;;;;;;;;;10278318;28;20073;-65
2022/06/22 02:45:23;;;;;;;4.93;3.50;;;;;;;;;;10278733;28;20080;-66
2022/06/22 02:50:25;;;;;;;8.82;4.18;;;;;;;;;;10274074;28;20092;-65
2022/06/22 02:55:26;;;;;;;5.50;3.72;;;;;;;;;;10281621;28;20092;-65
2022/06/22 03:00:26;;;;;;;12.38;4.10;;;;;;;;;;10282645;28;20485;-65
2022/06/22 03:05:26;;;;;;;12.35;4.63;;;;;;;;;;10283680;28;20072;-65
2022/06/22 03:10:26;;;;;;;6.85;3.65;;;;;;;;;;10284556;28;20073;-65
2022/06/22 03:15:26;;;;;;;5.70;3.60;;;;;;;;;;10280882;28;20068;-65
2022/06/22 03:20:28;;;;;;;5.50;3.90;;;;;;;;;;10280783;28;20080;-65
2022/06/22 03:25:28;;;;;;;5.63;4.15;;;;;;;;;;10280746;28;20081;-65
2022/06/22 03:30:27;;;;;;;7.07;3.80;;;;;;;;;;10275991;28;20072;-65
2022/06/22 03:35:29;;;;;;;7.82;3.67;;;;;;;;;;10280433;28;20088;-64
2022/06/22 03:40:30;;;;;;;9.73;5.28;;;;;;;;;;10278238;28;20455;-65
2022/06/22 03:45:30;;;;;;;6.55;4.13;;;;;;;;;;10280313;28;20453;-65
2022/06/22 03:50:35;;;;;;;7.03;3.50;;;;;;;;;;10280664;28;20140;-65
2022/06/22 03:55:35;;;;;;;7.15;4.38;;;;;;;;;;10284865;28;20125;-64
2022/06/22 04:00:34;;;;;;;6.30;3.75;;;;;;;;;;10281970;28;20079;-64
2022/06/22 04:05:39;;;;;;;5.85;4.13;;;;;;;;;;10305649;28;20055;-64
2022/06/22 04:10:40;;;;;;;10.52;4.10;;;;;;;;;;10281394;28;20083;-63
2022/06/22 04:15:40;;;;;;;11.90;3.95;;;;;;;;;;10284510;28;20095;-63
2022/06/22 04:20:51;;;;;;;6.57;3.85;;;;;;;;;;10281173;28;20498;-64
2022/06/22 04:25:50;;;;;;;13.10;7.53;;;;;;;;;;10281447;28;20111;-65
2022/06/22 04:30:50;;;;;;;9.15;4.28;;;;;;;;;;10280074;28;20079;-63
2022/06/22 04:35:53;;;;;;;16.02;5.32;;;;;;;;;;10280321;28;20084;-63
2022/06/22 04:40:55;;;;;;;10.38;4.50;;;;;;;;;;10276901;28;20079;-64
2022/06/22 04:45:53;;;;;;;10.25;4.15;;;;;;;;;;10284337;28;20075;-64
2022/06/22 04:50:57;;;;;;;5.03;4.00;;;;;;;;;;10282398;28;20045;-64
2022/06/22 04:55:57;;;;;;;6.90;4.45;;;;;;;;;;10281141;28;20451;-65
2022/06/22 05:00:56;;;;;;;10.43;4.72;;;;;;;;;;10285331;28;20124;-62
2022/06/22 05:05:57;;;;;;;12.35;6.18;;;;;;;;;;10280049;28;20080;-64
2022/06/22 05:10:57;;;;;;;11.93;5.55;;;;;;;;;;10310778;28;20067;-65
2022/06/22 05:15:59;;;;;;;12.75;6.05;;;;;;;;;;10315874;28;20560;-64
2022/06/22 05:21:01;;;;;;;5.80;4.15;;;;;;;;;;10307345;28;20060;-63
2022/06/22 05:26:01;;;;;;;5.40;3.35;;;;;;;;;;10281256;28;20514;-63
2022/06/22 05:31:02;;;;;;;9.20;3.58;;;;;;;;;;10293762;28;20104;-63
2022/06/22 05:36:05;;;;;;;6.95;3.55;;;;;;;;;;10274176;28;20076;-63
2022/06/22 05:41:10;;;;;;;6.25;3.55;;;;;;;;;;10281475;28;20517;-64
2022/06/22 05:46:09;;;;;;;8.80;4.70;;;;;;;;;;10280524;28;20064;-63
2022/06/22 05:51:14;;;;;;;8.05;4.78;;;;;;;;;;10277096;28;20461;-64
2022/06/22 05:56:16;;;;;;;5.22;4.32;;;;;;;;;;10276588;28;20068;-64
2022/06/22 06:01:18;;;;;;;9.52;5.90;;;;;;;;;;10288713;28;20069;-64
2022/06/22 06:06:19;;;;;;;5.82;5.05;;;;;;;;;;10283211;28;20079;-65
2022/06/22 06:11:20;;;;;;;12.40;5.32;;;;;;;;;;10273102;28;20073;-65
2022/06/22 06:16:23;;;;;;;7.57;5.50;;;;;;;;;;10270924;28;20072;-64
2022/06/22 06:21:24;;;;;;;8.27;4.88;;;;;;;;;;10275991;28;20087;-64
2022/06/22 06:31:50;;;;;;;12.05;5.28;;;;;;;;;;10277027;28;20087;-64
2022/06/22 06:36:57;;;;;;;10.55;5.00;;;;;;;;;;10276650;28;20503;-64
2022/06/22 06:42:04;;;;;;;8.90;4.63;;;;;;;;;;10283611;28;20072;-64
2022/06/22 06:47:05;;;;;;;14.40;4.95;;;;;;;;;;10286604;28;20075;-63
2022/06/22 06:52:31;;;;;;;10.00;5.40;;;;;;;;;;10282187;28;20546;-64
2022/06/22 06:57:29;;;;;;;8.98;4.57;;;;;;;;;;10282159;28;20088;-65
2022/06/22 07:02:30;;;;;;;10.10;5.47;;;;;;;;;;10282022;28;20082;-64
2022/06/22 07:07:33;;;;;;;5.15;4.03;;;;;;;;;;10282844;28;20080;-64
2022/06/22 07:12:35;;;;;;;9.02;4.35;;;;;;;;;;10282395;28;20052;-64
2022/06/22 07:17:33;;;;;;;9.25;4.18;;;;;;;;;;10285456;28;20076;-64
2022/06/22 07:22:35;;;;;;;6.18;3.20;;;;;;;;;;10284952;28;20524;-63
2022/06/22 07:27:36;;;;;;;7.30;3.13;;;;;;;;;;10282127;28;20052;-63
2022/06/22 07:32:40;;;;;;;7.07;2.80;;;;;;;;;;10280160;28;20057;-64
2022/06/22 07:37:38;;;;;;;;;;;;;;;;;;10280839;28;20525;-64
2022/06/22 07:42:39;;;;;;;5.10;3.30;;;;;;;;;;10283285;28;19966;-64
2022/06/22 07:47:39;;;;;;;9.20;4.60;;;;;;;;;;10284843;28;20075;-64
2022/06/22 07:52:40;;;;;;;7.22;2.88;;;;;;;;;;10281807;28;20077;-64
2022/06/22 07:57:43;;;;;;;5.38;2.67;;;;;;;;;;10283991;28;20099;-64
2022/06/22 08:02:45;;;;;;;5.18;2.92;;;;;;;;;;10281207;28;20056;-64
2022/06/22 08:07:46;;;;;;;8.13;3.75;;;;;;;;;;10281464;28;20071;-64
2022/06/22 08:12:49;;;;;;;5.72;2.63;;;;;;;;;;10280711;28;20076;-64
2022/06/22 08:17:49;;;;;;;8.55;2.13;;;;;;;;;;10276546;28;20509;-64
2022/06/22 08:22:48;;;;;;;6.25;2.95;;;;;;;;;;10278497;28;20084;-65
2022/06/22 08:27:54;;;;;;;10.80;3.17;;;;;;;;;;10278040;28;20048;-65
2022/06/22 08:32:55;;;;;;;4.15;2.67;;;;;;;;;;10278837;28;20048;-64
2022/06/22 08:37:55;;;;;;;7.07;2.50;;;;;;;;;;10280102;28;20085;-65
2022/06/22 08:42:58;;;;;;;5.38;2.50;;;;;;;;;;10282206;28;20087;-65
2022/06/22 08:48:04;;;;;;;6.43;2.70;;;;;;;;;;10278760;28;20494;-64
2022/06/22 08:53:09;;;;;;;5.13;2.25;;;;;;;;;;10278460;28;20115;-64
2022/06/22 08:58:17;;;;;;;4.13;2.78;;;;;;;;;;10284738;28;20072;-65
2022/06/22 09:03:43;;;;;;;9.68;3.10;;;;;;;;;;10291815;28;20076;-64
2022/06/22 09:08:57;;;;;;;4.73;2.73;;;;;;;;;;10280155;28;20084;-64
2022/06/22 09:14:14;;;;;;;7.18;3.17;;;;;;;;;;10278642;28;20338;-65
2022/06/22 09:19:29;;;;;;;5.05;2.63;;;;;;;;;;10284601;28;20065;-63
2022/06/22 09:24:33;;;;;;;10.48;2.85;;;;;;;;;;10274092;28;20084;-66
2022/06/22 09:29:40;;;;;;;5.22;2.40;;;;;;;;;;10278059;28;20103;-65
2022/06/22 09:34:48;;;;;;;5.43;2.53;;;;;;;;;;10273556;28;20072;-65
2022/06/22 09:40:07;;;;;;;3.47;2.22;;;;;;;;;;10305145;28;20082;-66
2022/06/22 09:45:20;;;;;;;9.18;2.85;;;;;;;;;;10252512;28;20080;-64
2022/06/22 09:50:44;;;;;;;3.45;2.40;;;;;;;;;;10276839;28;20083;-65
2022/06/22 10:01:18;;;;;;;6.43;2.53;;;;;;;;;;10280283;28;20088;-66
2022/06/22 10:06:35;;;;;;;5.15;2.30;;;;;;;;;;10276990;28;20073;-64
2022/06/22 10:11:39;;;;;;;9.90;2.60;;;;;;;;;;10275036;28;20068;-65
2022/06/22 10:16:51;;;;;;;6.47;2.00;;;;;;;;;;10285188;28;20081;-66
2022/06/22 10:21:57;;;;;;;9.00;2.47;;;;;;;;;;10272978;28;20057;-65
2022/06/22 10:27:17;;;;;;;4.68;1.75;;;;;;;;;;10277551;28;20059;-65
2022/06/22 10:32:35;;;;;;;6.72;3.13;;;;;;;;;;10276575;28;20075;-65
2022/06/22 10:38:01;;;;;;;7.00;1.98;;;;;;;;;;10296274;28;20084;-64
2022/06/22 10:48:50;;;;;;;8.23;1.98;;;;;;;;;;10278756;28;20048;-65
2022/06/22 10:54:01;;;;;;;4.18;2.97;;;;;;;;;;10274289;28;20096;-64
2022/06/22 10:59:28;;;;;;;7.15;2.15;;;;;;;;;;10303910;28;20080;-65
2022/06/22 11:05:03;;;;;;;8.10;2.05;;;;;;;;;;10278920;28;20084;-64
2022/06/22 11:10:13;;;;;;;4.60;2.42;;;;;;;;;;10274539;28;20068;-65
2022/06/22 11:15:28;;;;;;;8.88;2.58;;;;;;;;;;10283196;28;20281;-63
2022/06/22 11:20:33;;;;;;;4.50;1.77;;;;;;;;;;10282699;28;20072;-64
2022/06/22 11:31:00;;;;;;;2.95;1.55;;;;;;;;;;10283931;28;20048;-63
2022/06/22 11:36:04;;;;;;;6.97;1.73;;;;;;;;;;10285283;28;20076;-63
2022/06/22 11:41:20;;;;;;;5.47;1.98;;;;;;;;;;10279345;28;21080;-64
2022/06/22 11:46:22;;;;;;;6.75;3.42;;;;;;;;;;10291101;28;20524;-65
2022/06/22 11:51:29;;;;;;;7.27;2.50;;;;;;;;;;10281238;28;20072;-65
2022/06/22 11:56:34;;;;;;;7.00;1.73;;;;;;;;;;10289333;28;20075;-64
2022/06/22 12:01:55;;;;;;;8.60;1.52;;;;;;;;;;10280699;28;20057;-65
2022/06/22 12:07:11;;;;;;;4.30;1.58;;;;;;;;;;10284035;28;20048;-65
2022/06/22 12:12:30;;;;;;;6.75;1.70;;;;;;;;;;10283286;28;20082;-64
2022/06/22 12:17:39;;;;;;;6.78;1.42;;;;;;;;;;10279064;28;20510;-64
2022/06/22 12:22:44;;;;;;;2.45;1.80;;;;;;;;;;10279179;28;20436;-64
2022/06/22 12:27:44;;;;;;;3.45;1.70;;;;;;;;;;10277593;28;20612;-65
2022/06/22 12:32:47;;;;;;;1.40;1.30;;;;;;;;;;10280170;28;20056;-65
2022/06/22 12:37:46;;;;;;;;;;;;;;;;;;10282802;28;20072;-64
2022/06/22 12:42:49;;;;;;;8.02;2.33;;;;;;;;;;10282614;28;19971;-65
2022/06/22 12:48:06;;;;;;;3.03;1.80;;;;;;;;;;10282515;28;20041;-64
2022/06/22 12:53:07;;;;;;;3.42;2.38;;;;;;;;;;10281476;28;20075;-65
2022/06/22 12:58:08;;;;;;;5.88;1.88;;;;;;;;;;10304230;28;20080;-64
2022/06/22 13:03:06;;;;;;;3.30;1.42;;;;;;;;;;10298949;28;20088;-66
2022/06/22 13:08:09;;;;;;;9.40;2.03;;;;;;;;;;10281128;28;20068;-65
2022/06/22 13:13:10;;;;;;;12.50;3.65;;;;;;;;;;10281276;28;20075;-66
2022/06/22 13:18:13;;;;;;;8.65;5.57;;;;;;;;;;10280645;28;20080;-65
2022/06/22 13:23:20;;;;;;;7.53;5.32;;;;;;;;;;10277678;28;20087;-65
2022/06/22 13:28:22;;;;;;;9.90;4.25;;;;;;;;;;10280888;28;20163;-64
2022/06/22 13:33:25;;;;;;;3.97;2.47;;;;;;;;;;10280803;28;20116;-65
2022/06/22 13:38:35;;;;;;;5.07;1.40;;;;;;;;;;10276936;28;20080;-66
2022/06/22 13:43:37;;;;;;;2.70;1.58;;;;;;;;;;10280099;28;20084;-66
2022/06/22 13:48:40;;;;;;;2.17;1.53;;;;;;;;;;10280511;28;20520;-66
2022/06/22 13:54:05;;;;;;;7.03;2.40;;;;;;;;;;10277078;28;20052;-66
2022/06/22 13:59:07;;;;;;;7.85;1.08;;;;;;;;;;10277739;28;20506;-65
2022/06/22 14:04:09;;;;;;;14.85;3.20;;;;;;;;;;10275529;28;20075;-66
2022/06/22 14:09:11;;;;;;;2.63;1.30;;;;;;;;;;10275019;28;20063;-66
2022/06/22 14:14:15;;;;;;;8.30;3.80;;;;;;;;;;10276748;28;20511;-66
2022/06/22 14:19:17;;;;;;;4.13;1.52;;;;;;;;;;10276740;28;20081;-65
2022/06/22 14:24:19;;;;;;;8.70;3.33;;;;;;;;;;10279221;28;20049;-65
2022/06/22 14:29:21;;;;;;;8.82;2.42;;;;;;;;;;10279955;28;20065;-65
2022/06/22 14:34:24;;;;;;;12.40;3.85;;;;;;;;;;10279851;28;20388;-65
2022/06/22 14:39:35;;;;;;;2.83;2.08;;;;;;;;;;10283847;28;20110;-65
2022/06/22 14:44:38;;;;;;;3.20;2.15;;;;;;;;;;10279182;28;20084;-65
2022/06/22 14:49:41;;;;;;;4.88;1.10;;;;;;;;;;10282530;28;20080;-65
2022/06/22 14:54:46;;;;;;;4.05;2.20;;;;;;;;;;10284042;28;20084;-64
2022/06/22 14:59:53;;;;;;;1.35;1.20;;;;;;;;;;10286652;28;20091;-64
2022/06/22 15:04:57;;;;;;;8.30;2.28;;;;;;;;;;10286688;28;20081;-65
2022/06/22 15:10:01;;;;;;;11.25;2.10;;;;;;;;;;10283398;28;20457;-66
2022/06/22 15:14:59;;;;;;;;;;;;;;;;;;10283840;28;20069;-64
2022/06/22 15:20:00;;;;;;;4.13;2.03;;;;;;;;;;10286079;28;20062;-65
2022/06/22 15:25:07;;;;;;;7.32;2.25;;;;;;;;;;10282554;28;20061;-66
2022/06/22 15:30:15;;;;;;;3.33;1.50;;;;;;;;;;10282565;28;20048;-66
2022/06/22 15:35:19;;;;;;;6.18;2.03;;;;;;;;;;10284687;28;20071;-66
2022/06/22 15:40:35;;;;;;;6.43;3.42;;;;;;;;;;10285185;28;20072;-66
2022/06/22 15:45:41;;;;;;;6.63;4.07;;;;;;;;;;10282528;28;20057;-66
2022/06/22 15:51:01;;;;;;;4.80;2.53;;;;;;;;;;10284369;28;20069;-66
2022/06/22 15:56:08;;;;;;;6.82;4.22;;;;;;;;;;10284345;28;20057;-66
2022/06/22 16:01:10;;;;;;;5.30;3.90;;;;;;;;;;10279821;28;20076;-66
2022/06/22 16:06:10;;;;;;;6.50;3.53;;;;;;;;;;10284537;28;20049;-69
2022/06/22 16:16:34;;;;;;;6.72;3.33;;;;;;;;;;10312789;28;20072;-65
2022/06/22 16:21:35;;;;;;;3.95;2.60;;;;;;;;;;10312351;28;20072;-68
2022/06/22 16:26:37;;;;;;;5.55;3.22;;;;;;;;;;10279781;28;20076;-65
2022/06/22 16:31:44;;;;;;;6.05;2.80;;;;;;;;;;10280285;28;20093;-65
2022/06/22 16:36:48;;;;;;;3.40;1.77;;;;;;;;;;10281801;28;20048;-66
2022/06/22 16:41:54;;;;;;;3.70;1.88;;;;;;;;;;10279202;28;20088;-65
2022/06/22 16:47:14;;;;;;;7.03;1.90;;;;;;;;;;10279282;28;20095;-65
2022/06/22 16:52:15;;;;;;;8.75;2.75;;;;;;;;;;10278593;28;20084;-62
2022/06/22 16:57:17;;;;;;;5.07;1.80;;;;;;;;;;10284467;28;20080;-61
2022/06/22 17:02:27;;;;;;;6.70;4.55;;;;;;;;;;10282015;28;20076;-62
2022/06/22 17:07:30;;;;;;;4.72;2.40;;;;;;;;;;10301124;28;20084;-63
2022/06/22 17:12:34;;;;;;;4.72;3.15;;;;;;;;;;10277055;28;20068;-62
2022/06/22 17:17:38;;;;;;;4.68;2.72;;;;;;;;;;10277761;28;20086;-61
2022/06/22 17:22:43;;;;;;;4.78;3.13;;;;;;;;;;10279649;28;20540;-62
2022/06/22 17:27:47;;;;;;;6.68;5.90;;;;;;;;;;10286368;28;20067;-61
2022/06/22 17:32:54;;;;;;;12.10;5.80;;;;;;;;;;10276313;28;20069;-62
2022/06/22 17:38:00;;;;;;;16.08;5.75;;;;;;;;;;10275459;28;20053;-62
2022/06/22 17:43:01;;;;;;;9.18;2.92;;;;;;;;;;10280253;28;20060;-62
2022/06/22 17:48:05;;;;;;;7.22;4.07;;;;;;;;;;10283122;28;20111;-62
2022/06/22 17:53:05;;;;;;;13.73;4.63;;;;;;;;;;10284398;28;20068;-62
2022/06/22 17:58:09;;;;;;;6.03;2.53;;;;;;;;;;10293803;28;20064;-62
2022/06/22 18:03:14;;;;;;;9.38;3.75;;;;;;;;;;10272863;28;20104;-62
2022/06/22 18:08:17;;;;;;;10.88;5.45;;;;;;;;;;10277150;28;20091;-62
2022/06/22 18:13:15;;;;;;;9.37;3.60;;;;;;;;;;10285998;28;20073;-62
2022/06/22 18:18:22;;;;;;;14.15;4.70;;;;;;;;;;10276161;28;20075;-69
2022/06/22 18:23:21;;;;;;;6.68;3.85;;;;;;;;;;10274719;28;20068;-67
2022/06/22 18:28:21;;;;;;;6.93;3.20;;;;;;;;;;10296399;28;20056;-62
2022/06/22 18:33:24;;;;;;;7.07;3.53;;;;;;;;;;10287075;28;20066;-62
2022/06/22 18:42:03;;;;;;;8.70;3.83;;;;;;;;;;10302483;28;20462;-62
2022/06/22 18:43:47;;;;;;;5.63;4.17;;;;;;;;;;10297479;28;20083;-62
2022/06/22 18:48:49;;;;;;;9.02;3.40;;;;;;;;;;10309843;28;20473;-61
2022/06/22 18:53:52;;;;;;;11.68;3.03;;;;;;;;;;10292602;28;20076;-62
2022/06/22 18:58:52;;;;;;;4.50;3.23;;;;;;;;;;10285721;28;20069;-61
2022/06/22 19:04:00;;;;;;;4.93;1.92;;;;;;;;;;10283716;28;20086;-62
2022/06/22 19:09:01;;;;;;;12.20;2.40;;;;;;;;;;10284543;28;20510;-62
2022/06/22 19:14:01;;;;;;;8.05;2.55;;;;;;;;;;10288883;28;20426;-62
2022/06/22 19:19:12;;;;;;;5.32;2.88;;;;;;;;;;10297587;28;20061;-61
2022/06/22 19:24:25;;;;;;;7.82;3.10;;;;;;;;;;10288549;28;20152;-62
2022/06/22 19:29:27;;;;;;;5.78;3.85;;;;;;;;;;10285342;28;20083;-61
2022/06/22 19:34:33;;;;;;;3.03;2.30;;;;;;;;;;10284831;28;20083;-62
2022/06/22 19:39:55;;;;;;;5.70;2.13;;;;;;;;;;10286979;28;20498;-62
2022/06/22 19:44:59;;;;;;;1.98;1.77;;;;;;;;;;10285628;28;20171;-62
2022/06/22 19:50:04;;;;;;;6.13;2.17;;;;;;;;;;10287354;28;20060;-62
2022/06/22 19:55:06;;;;;;;5.68;2.08;;;;;;;;;;10290549;28;20072;-61
2022/06/22 20:00:05;;;;;;;3.50;1.95;;;;;;;;;;10281462;28;20080;-62
2022/06/22 20:05:14;;;;;;;6.53;1.80;;;;;;;;;;10286605;28;20072;-63
2022/06/22 20:10:12;;;;;;;;;;;;;;;;;;10284001;28;20082;-62
2022/06/22 20:15:13;;;;;;;3.28;1.70;;;;;;;;;;10285792;28;19958;-62
2022/06/22 20:20:14;;;;;;;6.38;2.58;;;;;;;;;;10282310;28;20111;-63
2022/06/22 20:25:18;;;;;;;3.08;1.92;;;;;;;;;;10284664;28;20077;-62
2022/06/22 20:30:19;;;;;;;5.28;1.85;;;;;;;;;;10284462;28;20068;-62
2022/06/22 20:35:29;;;;;;;5.25;1.77;;;;;;;;;;10284113;28;20074;-62
2022/06/22 20:40:32;;;;;;;5.88;2.20;;;;;;;;;;10280799;28;20096;-63
2022/06/22 20:45:36;;;;;;;3.75;2.22;;;;;;;;;;10278055;28;20056;-63
2022/06/22 20:50:40;;;;;;;4.45;1.95;;;;;;;;;;10283782;28;20077;-62
2022/06/22 20:55:41;;;;;;;2.63;1.85;;;;;;;;;;10279349;28;20073;-62
2022/06/22 21:00:41;;;;;;;5.28;2.00;;;;;;;;;;10288994;28;20068;-62
2022/06/22 21:05:43;;;;;;;6.20;2.55;;;;;;;;;;10285058;28;20068;-64
2022/06/22 21:10:42;;;;;;;2.63;1.87;;;;;;;;;;10281230;28;20450;-62
2022/06/22 21:15:51;;;;;;;2.58;1.98;;;;;;;;;;10282454;28;20096;-61
2022/06/22 21:20:58;;;;;;;4.57;1.85;;;;;;;;;;10283949;28;20084;-61
2022/06/22 21:26:14;;;;;;;5.88;1.75;;;;;;;;;;10274177;28;20533;-61
2022/06/22 21:31:13;;;;;;;2.05;1.42;;;;;;;;;;10278752;28;20088;-62
2022/06/22 21:36:13;;;;;;;5.18;2.03;;;;;;;;;;10277480;28;20041;-61
2022/06/22 21:41:21;;;;;;;4.93;1.48;;;;;;;;;;10277099;28;20075;-62
2022/06/22 21:46:28;;;;;;;3.47;1.27;;;;;;;;;;10275809;28;20083;-62
2022/06/22 21:51:35;;;;;;;2.22;1.42;;;;;;;;;;10276592;28;20079;-63
2022/06/22 21:56:43;;;;;;;1.30;1.20;;;;;;;;;;10276227;28;20037;-62
2022/06/22 22:01:46;;;;;;;4.25;1.35;;;;;;;;;;10275945;28;20084;-62
2022/06/22 22:06:53;;;;;;;5.15;1.38;;;;;;;;;;10278536;28;20055;-62
2022/06/22 22:11:51;;;;;;;6.45;1.73;;;;;;;;;;10276476;28;20095;-61
2022/06/22 22:16:52;;;;;;;1.67;1.35;;;;;;;;;;10276377;28;20049;-61
2022/06/22 22:21:55;;;;;;;2.63;1.52;;;;;;;;;;10275700;28;20186;-62
2022/06/22 22:26:56;;;;;;;1.98;1.10;;;;;;;;;;10275734;28;20076;-62
2022/06/22 22:31:54;;;;;;;2.97;1.73;;;;;;;;;;10278607;28;20084;-62
2022/06/22 22:36:55;;;;;;;3.90;1.95;;;;;;;;;;10275575;28;20037;-62
2022/06/22 22:41:55;;;;;;;3.13;1.55;;;;;;;;;;10278765;28;20083;-61
2022/06/22 22:46:56;;;;;;;4.70;1.30;;;;;;;;;;10275393;28;20084;-61
2022/06/22 22:51:57;;;;;;;4.93;1.70;;;;;;;;;;10276174;28;20083;-62
2022/06/22 22:57:01;;;;;;;2.95;1.50;;;;;;;;;;10277989;28;20079;-61
2022/06/22 23:02:01;;;;;;;5.82;1.77;;;;;;;;;;10275673;28;20085;-61
2022/06/22 23:07:00;;;;;;;5.97;1.52;;;;;;;;;;10274819;28;20076;-61
2022/06/22 23:11:59;;;;;;;1.52;1.25;;;;;;;;;;10280090;28;20490;-61
2022/06/22 23:16:58;;;;;;;3.15;1.60;;;;;;;;;;10282083;28;20061;-61
2022/06/22 23:21:57;;;;;;;2.17;1.30;;;;;;;;;;10282498;28;20096;-62
2022/06/22 23:27:00;;;;;;;3.35;1.45;;;;;;;;;;10283909;28;20126;-61
2022/06/22 23:31:59;;;;;;;1.60;1.50;;;;;;;;;;10284226;28;20079;-61
2022/06/22 23:36:59;;;;;;;5.75;1.85;;;;;;;;;;10283517;28;20105;-62
2022/06/22 23:42:01;;;;;;;3.10;1.42;;;;;;;;;;10282184;28;20071;-61
2022/06/22 23:52:18;;;;;;;4.13;1.80;;;;;;;;;;10283925;28;20071;-61
2022/06/22 23:57:23;;;;;;;5.18;2.65;;;;;;;;;;10284089;28;20064;-62
